createdAt,value
2017-05-27T00:01:27.618Z,69.26
2017-05-27T00:03:57.523Z,69.26
2017-05-27T00:06:27.340Z,69.66
2017-05-27T00:08:57.162Z,69.03
2017-05-27T00:11:27.019Z,69.21
2017-05-27T00:13:56.830Z,68.91
2017-05-27T00:16:26.675Z,68.87
2017-05-27T00:18:56.520Z,68.92
2017-05-27T00:21:26.363Z,69.02
2017-05-27T00:23:56.207Z,69.27
2017-05-27T00:26:26.047Z,69.28
2017-05-27T00:28:55.899Z,69.53
2017-05-27T00:31:25.706Z,69.49
2017-05-27T00:33:55.557Z,69.83
2017-05-27T00:36:25.376Z,69.55
2017-05-27T00:38:55.235Z,69.83
2017-05-27T00:41:25.049Z,69.67
2017-05-27T00:43:54.892Z,70.11
2017-05-27T00:46:24.763Z,70.07
2017-05-27T00:48:54.574Z,70.17
2017-05-27T00:51:24.429Z,70.46
2017-05-27T00:53:54.250Z,70.61
2017-05-27T00:56:24.201Z,70.63
2017-05-27T00:58:54.017Z,70.72
2017-05-27T01:01:23.833Z,70.68
2017-05-27T01:03:53.674Z,70.52
2017-05-27T01:06:23.500Z,70.84
2017-05-27T01:08:53.347Z,70.80
2017-05-27T01:11:23.162Z,70.59
2017-05-27T01:13:53.002Z,70.67
2017-05-27T01:16:22.846Z,70.65
2017-05-27T01:18:52.679Z,70.37
2017-05-27T01:21:22.526Z,70.66
2017-05-27T01:23:52.342Z,70.86
2017-05-27T01:26:22.176Z,70.77
2017-05-27T01:28:52.031Z,70.78
2017-05-27T01:31:21.841Z,70.87
2017-05-27T01:33:51.690Z,70.98
2017-05-27T01:36:21.140Z,70.59
2017-05-27T01:38:50.954Z,70.45
2017-05-27T01:41:20.806Z,70.91
2017-05-27T01:43:50.618Z,70.98
2017-05-27T01:46:20.482Z,71.58
2017-05-27T01:48:50.328Z,71.48
2017-05-27T01:51:20.166Z,72.08
2017-05-27T01:53:50.004Z,72.18
2017-05-27T01:56:19.842Z,72.38
2017-05-27T01:58:49.709Z,72.13
2017-05-27T02:01:19.523Z,71.48
2017-05-27T02:03:49.366Z,71.24
2017-05-27T02:06:19.179Z,71.46
2017-05-27T02:08:48.991Z,71.66
2017-05-27T02:11:18.843Z,71.74
2017-05-27T02:13:48.687Z,71.55
2017-05-27T02:16:18.537Z,71.59
2017-05-27T02:18:48.386Z,71.72
2017-05-27T02:21:18.215Z,71.47
2017-05-27T02:23:48.033Z,71.35
2017-05-27T02:26:17.861Z,71.39
2017-05-27T02:28:47.707Z,71.65
2017-05-27T02:31:17.514Z,71.88
2017-05-27T02:33:47.366Z,71.84
2017-05-27T02:36:17.208Z,71.92
2017-05-27T02:38:47.059Z,71.86
2017-05-27T02:41:16.890Z,72.01
2017-05-27T02:43:46.719Z,71.53
2017-05-27T02:46:16.610Z,71.33
2017-05-27T02:48:46.585Z,71.37
2017-05-27T02:51:16.474Z,71.60
2017-05-27T02:53:46.316Z,71.96
2017-05-27T02:56:16.164Z,71.70
2017-05-27T02:58:46.031Z,71.80
2017-05-27T03:01:15.846Z,71.77
2017-05-27T03:03:45.698Z,71.88
2017-05-27T03:06:15.510Z,72.49
2017-05-27T03:08:45.339Z,72.44
2017-05-27T03:11:15.195Z,72.69
2017-05-27T03:13:45.006Z,72.73
2017-05-27T03:16:14.858Z,72.94
2017-05-27T03:18:44.682Z,72.78
2017-05-27T03:21:14.543Z,72.58
2017-05-27T03:23:44.385Z,72.73
2017-05-27T03:26:14.200Z,72.98
2017-05-27T03:28:44.053Z,72.74
2017-05-27T03:31:13.866Z,73.03
2017-05-27T03:33:43.688Z,72.75
2017-05-27T03:36:13.531Z,73.31
2017-05-27T03:38:43.348Z,73.20
2017-05-27T03:41:13.211Z,72.83
2017-05-27T03:43:43.027Z,72.72
2017-05-27T03:46:12.847Z,72.93
2017-05-27T03:48:42.734Z,73.76
2017-05-27T03:51:12.542Z,73.71
2017-05-27T03:53:42.388Z,73.61
2017-05-27T03:56:12.213Z,73.29
2017-05-27T03:58:42.046Z,73.39
2017-05-27T04:01:11.904Z,73.26
2017-05-27T04:03:41.747Z,73.44
2017-05-27T04:06:11.607Z,73.54
2017-05-27T04:08:41.429Z,73.99
2017-05-27T04:11:11.284Z,73.91
2017-05-27T04:13:41.109Z,74.07
2017-05-27T04:16:10.959Z,74.57
2017-05-27T04:18:40.807Z,74.76
2017-05-27T04:21:10.633Z,74.65
2017-05-27T04:23:40.519Z,74.84
2017-05-27T04:26:10.351Z,75.36
2017-05-27T04:28:40.250Z,75.52
2017-05-27T04:31:10.079Z,75.81
2017-05-27T04:33:39.926Z,75.54
2017-05-27T04:36:09.814Z,75.76
2017-05-27T04:38:39.636Z,75.70
2017-05-27T04:41:09.495Z,75.60
2017-05-27T04:43:39.320Z,75.40
2017-05-27T04:46:09.151Z,74.56
2017-05-27T04:48:39.012Z,73.86
2017-05-27T04:51:08.834Z,73.42
2017-05-27T04:53:38.689Z,73.27
2017-05-27T04:56:08.518Z,72.84
2017-05-27T04:58:38.349Z,72.41
2017-05-27T05:01:08.191Z,72.54
2017-05-27T05:03:38.009Z,72.35
2017-05-27T05:06:07.911Z,72.34
2017-05-27T05:08:37.741Z,72.17
2017-05-27T05:11:07.607Z,72.82
2017-05-27T05:13:37.531Z,72.75
2017-05-27T05:16:07.355Z,72.06
2017-05-27T05:18:37.199Z,72.25
2017-05-27T05:21:07.034Z,72.13
2017-05-27T05:23:36.937Z,71.69
2017-05-27T05:26:06.764Z,71.85
2017-05-27T05:28:36.595Z,71.76
2017-05-27T05:31:06.459Z,71.14
2017-05-27T05:33:36.286Z,71.40
2017-05-27T05:36:06.142Z,71.44
2017-05-27T05:38:35.983Z,71.97
2017-05-27T05:41:05.830Z,71.58
2017-05-27T05:43:35.685Z,71.17
2017-05-27T05:46:05.506Z,71.04
2017-05-27T05:48:35.363Z,72.26
2017-05-27T05:51:04.846Z,71.88
2017-05-27T05:53:34.684Z,72.54
2017-05-27T05:56:04.554Z,72.71
2017-05-27T05:58:34.378Z,71.45
2017-05-27T06:01:04.253Z,71.30
2017-05-27T06:03:34.074Z,72.49
2017-05-27T06:06:03.966Z,71.44
2017-05-27T06:08:33.822Z,70.28
2017-05-27T06:11:03.789Z,70.31
2017-05-27T06:13:33.737Z,70.69
2017-05-27T06:16:04.491Z,70.86
2017-05-27T06:18:34.355Z,71.27
2017-05-27T06:21:04.234Z,69.39
2017-05-27T06:23:34.060Z,68.95
2017-05-27T06:26:03.938Z,69.43
2017-05-27T06:28:33.776Z,70.75
2017-05-27T06:31:03.648Z,70.52
2017-05-27T06:33:33.455Z,70.01
2017-05-27T06:36:02.980Z,70.58
2017-05-27T06:38:32.903Z,69.99
2017-05-27T06:41:02.734Z,68.09
2017-05-27T06:43:32.723Z,66.49
2017-05-27T06:46:02.670Z,65.49
2017-05-27T06:48:32.483Z,65.96
2017-05-27T06:51:02.323Z,66.38
2017-05-27T06:53:32.148Z,65.44
2017-05-27T06:56:02.006Z,65.94
2017-05-27T06:58:31.818Z,64.30
2017-05-27T07:01:01.638Z,64.12
2017-05-27T07:03:31.488Z,65.49
2017-05-27T07:06:01.302Z,63.96
2017-05-27T07:08:31.198Z,63.86
2017-05-27T07:11:01.002Z,63.32
2017-05-27T07:13:30.823Z,62.98
2017-05-27T07:16:00.678Z,63.26
2017-05-27T07:18:30.496Z,62.44
2017-05-27T07:21:00.445Z,61.85
2017-05-27T07:23:30.300Z,62.41
2017-05-27T07:26:00.119Z,60.82
2017-05-27T07:28:29.961Z,61.27
2017-05-27T07:30:59.775Z,60.55
2017-05-27T07:33:29.635Z,59.91
2017-05-27T07:35:59.447Z,59.59
2017-05-27T07:38:29.266Z,59.56
2017-05-27T07:40:59.100Z,57.95
2017-05-27T07:43:28.933Z,57.92
2017-05-27T07:45:58.862Z,58.26
2017-05-27T07:48:28.690Z,58.01
2017-05-27T07:50:58.509Z,56.92
2017-05-27T07:53:28.341Z,56.35
2017-05-27T07:55:58.745Z,55.90
2017-05-27T07:58:28.601Z,55.68
2017-05-27T08:01:03.860Z,54.39
2017-05-27T08:03:33.361Z,53.38
2017-05-27T08:06:03.202Z,52.93
2017-05-27T08:08:32.836Z,53.96
2017-05-27T08:11:02.679Z,53.04
2017-05-27T08:13:32.500Z,52.94
2017-05-27T08:16:02.358Z,51.34
2017-05-27T08:18:32.177Z,50.78
2017-05-27T08:21:03.283Z,50.61
2017-05-27T08:23:33.142Z,50.77
2017-05-27T08:26:02.982Z,48.45
2017-05-27T08:28:32.874Z,48.48
2017-05-27T08:31:02.713Z,48.31
2017-05-27T08:33:37.975Z,49.00
2017-05-27T08:36:07.808Z,49.16
2017-05-27T08:38:37.662Z,49.59
2017-05-27T08:41:07.516Z,49.81
2017-05-27T08:43:37.358Z,49.35
2017-05-27T08:46:07.180Z,48.76
2017-05-27T08:48:37.001Z,47.71
2017-05-27T08:51:06.850Z,47.97
2017-05-27T08:53:36.673Z,46.09
2017-05-27T08:56:06.518Z,46.15
2017-05-27T08:58:36.339Z,46.43
2017-05-27T09:01:06.182Z,45.34
2017-05-27T09:03:36.030Z,44.58
2017-05-27T09:06:05.890Z,44.42
2017-05-27T09:08:35.730Z,43.08
2017-05-27T09:11:05.542Z,44.14
2017-05-27T09:13:35.427Z,44.18
2017-05-27T09:16:05.256Z,43.35
2017-05-27T09:18:35.094Z,43.48
2017-05-27T09:21:04.934Z,43.18
2017-05-27T09:23:34.762Z,43.35
2017-05-27T09:26:04.648Z,44.06
2017-05-27T09:28:34.495Z,43.72
2017-05-27T09:31:04.351Z,42.69
2017-05-27T09:33:34.202Z,41.84
2017-05-27T09:36:04.072Z,42.28
2017-05-27T09:38:33.942Z,41.55
2017-05-27T09:41:03.810Z,42.02
2017-05-27T09:43:33.623Z,42.95
2017-05-27T09:46:05.028Z,41.88
2017-05-27T09:48:34.838Z,41.23
2017-05-27T09:51:04.686Z,41.70
2017-05-27T09:53:34.502Z,41.38
2017-05-27T09:56:04.387Z,40.92
2017-05-27T09:58:34.238Z,42.07
2017-05-27T10:01:04.083Z,42.02
2017-05-27T10:03:33.954Z,41.12
2017-05-27T10:06:04.526Z,42.41
2017-05-27T10:08:34.354Z,39.71
2017-05-27T10:11:04.229Z,40.95
2017-05-27T10:13:34.067Z,41.41
2017-05-27T10:16:03.975Z,41.21
2017-05-27T10:18:33.791Z,40.87
2017-05-27T10:21:03.694Z,41.35
2017-05-27T10:23:33.536Z,41.71
2017-05-27T10:26:03.379Z,40.68
2017-05-27T10:28:33.230Z,39.78
2017-05-27T10:31:03.141Z,38.90
2017-05-27T10:33:33.005Z,38.91
2017-05-27T10:36:02.859Z,39.18
2017-05-27T10:38:33.013Z,39.23
2017-05-27T10:41:02.854Z,39.28
2017-05-27T10:43:32.686Z,35.92
2017-05-27T10:46:02.503Z,37.15
2017-05-27T10:48:32.354Z,34.58
2017-05-27T10:51:02.193Z,36.80
2017-05-27T10:53:32.065Z,37.34
2017-05-27T10:56:01.881Z,41.12
2017-05-27T10:58:31.726Z,40.65
2017-05-27T11:01:01.562Z,39.20
2017-05-27T11:03:31.387Z,39.53
2017-05-27T11:06:01.238Z,39.19
2017-05-27T11:08:31.050Z,38.81
2017-05-27T11:11:00.866Z,38.62
2017-05-27T11:13:30.734Z,38.52
2017-05-27T11:16:00.559Z,39.09
2017-05-27T11:18:30.423Z,38.68
2017-05-27T11:21:00.240Z,38.01
2017-05-27T11:23:30.058Z,37.98
2017-05-27T11:25:59.898Z,37.77
2017-05-27T11:28:29.714Z,37.58
2017-05-27T11:30:59.567Z,36.33
2017-05-27T11:33:29.379Z,37.00
2017-05-27T11:35:59.194Z,38.22
2017-05-27T11:38:29.029Z,38.05
2017-05-27T11:40:58.482Z,37.73
2017-05-27T11:43:28.335Z,36.83
2017-05-27T11:45:58.165Z,37.88
2017-05-27T11:48:27.982Z,36.21
2017-05-27T11:50:57.865Z,35.67
2017-05-27T11:53:27.674Z,35.95
2017-05-27T11:55:57.524Z,35.28
2017-05-27T11:58:27.341Z,35.84
2017-05-27T12:00:57.190Z,36.65
2017-05-27T12:03:27.006Z,36.24
2017-05-27T12:05:56.859Z,35.87
2017-05-27T12:08:26.698Z,36.47
2017-05-27T12:10:56.519Z,34.21
2017-05-27T12:13:26.374Z,34.42
2017-05-27T12:15:56.190Z,35.03
2017-05-27T12:18:26.024Z,34.82
2017-05-27T12:20:55.898Z,34.05
2017-05-27T12:23:25.727Z,34.41
2017-05-27T12:25:55.579Z,33.68
2017-05-27T12:28:25.397Z,33.38
2017-05-27T12:30:55.240Z,33.58
2017-05-27T12:33:25.079Z,33.74
2017-05-27T12:35:54.894Z,33.45
2017-05-27T12:38:24.746Z,34.21
2017-05-27T12:40:54.558Z,34.52
2017-05-27T12:43:24.370Z,34.21
2017-05-27T12:45:54.206Z,35.56
2017-05-27T12:48:24.018Z,33.99
2017-05-27T12:50:53.886Z,32.93
2017-05-27T12:53:23.699Z,33.49
2017-05-27T12:55:53.519Z,34.71
2017-05-27T12:58:23.357Z,34.19
2017-05-27T13:00:53.195Z,35.13
2017-05-27T13:03:23.059Z,33.10
2017-05-27T13:05:52.881Z,33.37
2017-05-27T13:08:22.701Z,33.12
2017-05-27T13:10:52.551Z,33.79
2017-05-27T13:13:22.365Z,34.41
2017-05-27T13:15:52.211Z,35.24
2017-05-27T13:18:22.042Z,35.67
2017-05-27T13:20:51.865Z,34.15
2017-05-27T13:23:21.706Z,33.20
2017-05-27T13:25:51.562Z,33.19
2017-05-27T13:28:21.410Z,33.81
2017-05-27T13:30:51.223Z,33.30
2017-05-27T13:33:21.042Z,33.33
2017-05-27T13:35:50.889Z,33.30
2017-05-27T13:38:20.719Z,34.81
2017-05-27T13:40:50.589Z,33.88
2017-05-27T13:43:20.401Z,32.91
2017-05-27T13:45:50.219Z,32.46
2017-05-27T13:48:20.035Z,32.87
2017-05-27T13:50:49.846Z,32.88
2017-05-27T13:53:19.691Z,33.22
2017-05-27T13:55:49.509Z,33.96
2017-05-27T13:58:19.358Z,34.17
2017-05-27T14:00:49.179Z,32.49
2017-05-27T14:03:19.030Z,31.18
2017-05-27T14:05:48.850Z,31.78
2017-05-27T14:08:18.669Z,33.01
2017-05-27T14:10:48.510Z,31.93
2017-05-27T14:13:18.318Z,30.78
2017-05-27T14:15:48.173Z,31.73
2017-05-27T14:18:17.990Z,32.27
2017-05-27T14:20:47.845Z,32.89
2017-05-27T14:23:17.668Z,32.63
2017-05-27T14:25:47.510Z,32.48
2017-05-27T14:28:17.346Z,32.09
2017-05-27T14:30:47.196Z,30.69
2017-05-27T14:33:17.027Z,30.22
2017-05-27T14:35:46.866Z,28.30
2017-05-27T14:38:16.689Z,28.26
2017-05-27T14:40:46.556Z,29.73
2017-05-27T14:43:16.366Z,28.82
2017-05-27T14:45:46.211Z,28.87
2017-05-27T14:48:16.051Z,28.88
2017-05-27T14:50:45.866Z,29.08
2017-05-27T14:53:15.790Z,29.37
2017-05-27T14:55:45.582Z,30.53
2017-05-27T14:58:15.431Z,30.59
2017-05-27T15:00:45.274Z,29.81
2017-05-27T15:03:15.087Z,28.13
2017-05-27T15:05:44.930Z,29.10
2017-05-27T15:08:14.754Z,28.21
2017-05-27T15:10:44.622Z,28.39
2017-05-27T15:13:14.442Z,29.26
2017-05-27T15:15:44.286Z,28.86
2017-05-27T15:18:14.103Z,29.32
2017-05-27T15:20:43.948Z,27.81
2017-05-27T15:23:13.778Z,27.40
2017-05-27T15:25:43.617Z,28.85
2017-05-27T15:28:13.435Z,28.42
2017-05-27T15:30:43.283Z,28.75
2017-05-27T15:33:13.107Z,27.78
2017-05-27T15:35:42.943Z,27.31
2017-05-27T15:38:12.760Z,27.32
2017-05-27T15:40:42.627Z,28.15
2017-05-27T15:43:12.442Z,28.67
2017-05-27T15:45:42.256Z,28.16
2017-05-27T15:48:12.107Z,28.59
2017-05-27T15:50:41.915Z,32.34
2017-05-27T15:53:11.768Z,33.63
2017-05-27T15:55:41.585Z,33.50
2017-05-27T15:58:11.428Z,31.53
2017-05-27T16:00:41.238Z,28.89
2017-05-27T16:03:11.082Z,29.08
2017-05-27T16:05:40.928Z,28.69
2017-05-27T16:08:10.773Z,28.41
2017-05-27T16:10:40.586Z,28.94
2017-05-27T16:13:10.422Z,29.70
2017-05-27T16:15:40.243Z,31.98
2017-05-27T16:18:10.097Z,33.32
2017-05-27T16:20:39.919Z,34.80
2017-05-27T16:23:09.767Z,34.50
2017-05-27T16:25:39.590Z,34.52
2017-05-27T16:28:09.434Z,35.20
2017-05-27T16:30:39.255Z,34.83
2017-05-27T16:33:09.074Z,35.36
2017-05-27T16:35:38.914Z,34.95
2017-05-27T16:38:08.738Z,35.21
2017-05-27T16:40:38.581Z,34.73
2017-05-27T16:43:08.403Z,35.15
2017-05-27T16:45:38.263Z,34.10
2017-05-27T16:48:08.085Z,34.27
2017-05-27T16:50:37.935Z,34.80
2017-05-27T16:53:07.753Z,34.85
2017-05-27T16:55:37.597Z,35.40
2017-05-27T16:58:07.417Z,35.82
2017-05-27T17:00:37.259Z,35.98
2017-05-27T17:03:07.065Z,35.91
2017-05-27T17:05:36.918Z,35.77
2017-05-27T17:08:06.739Z,35.84
2017-05-27T17:10:36.608Z,35.75
2017-05-27T17:13:06.453Z,35.16
2017-05-27T17:15:36.293Z,35.49
2017-05-27T17:18:06.126Z,35.29
2017-05-27T17:20:35.981Z,35.84
2017-05-27T17:23:05.823Z,36.29
2017-05-27T17:25:35.637Z,35.93
2017-05-27T17:28:05.477Z,36.34
2017-05-27T17:30:35.296Z,36.83
2017-05-27T17:33:05.179Z,36.89
2017-05-27T17:35:35.001Z,37.17
2017-05-27T17:38:04.891Z,36.73
2017-05-27T17:40:34.704Z,37.35
2017-05-27T17:43:04.621Z,37.84
2017-05-27T17:45:34.484Z,37.50
2017-05-27T17:48:04.398Z,37.98
2017-05-27T17:50:34.228Z,38.31
2017-05-27T17:53:04.241Z,37.96
2017-05-27T17:55:34.061Z,38.43
2017-05-27T17:58:05.033Z,38.91
2017-05-27T18:00:34.878Z,37.99
2017-05-27T18:03:04.764Z,37.98
2017-05-27T18:05:34.659Z,36.99
2017-05-27T18:08:04.527Z,37.26
2017-05-27T18:10:34.351Z,37.56
2017-05-27T18:13:04.214Z,37.59
2017-05-27T18:15:34.023Z,37.76
2017-05-27T18:18:03.900Z,38.38
2017-05-27T18:20:33.731Z,38.89
2017-05-27T18:23:03.546Z,38.23
2017-05-27T18:25:33.406Z,37.87
2017-05-27T18:28:03.251Z,38.61
2017-05-27T18:30:33.119Z,38.71
2017-05-27T18:33:02.929Z,38.72
2017-05-27T18:35:32.741Z,38.52
2017-05-27T18:38:02.593Z,38.81
2017-05-27T18:40:32.413Z,38.55
2017-05-27T18:43:02.259Z,38.97
2017-05-27T18:45:32.096Z,39.14
2017-05-27T18:48:01.942Z,39.29
2017-05-27T18:50:31.786Z,39.92
2017-05-27T18:53:01.626Z,40.47
2017-05-27T18:55:31.493Z,39.86
2017-05-27T18:58:01.305Z,40.54
2017-05-27T19:00:31.155Z,40.82
2017-05-27T19:03:01.024Z,40.08
2017-05-27T19:05:30.842Z,40.24
2017-05-27T19:08:00.726Z,40.23
2017-05-27T19:10:30.554Z,40.63
2017-05-27T19:13:00.377Z,40.69
2017-05-27T19:15:30.242Z,40.82
2017-05-27T19:18:00.059Z,41.55
2017-05-27T19:20:29.936Z,41.35
2017-05-27T19:22:59.747Z,41.77
2017-05-27T19:25:29.630Z,41.75
2017-05-27T19:27:59.445Z,41.99
2017-05-27T19:30:29.282Z,42.22
2017-05-27T19:32:59.144Z,42.40
2017-05-27T19:35:28.960Z,43.40
2017-05-27T19:37:58.837Z,43.64
2017-05-27T19:40:28.653Z,43.81
2017-05-27T19:42:58.647Z,43.97
2017-05-27T19:45:28.466Z,44.16
2017-05-27T19:47:58.292Z,44.16
2017-05-27T19:50:28.138Z,44.51
2017-05-27T19:52:57.956Z,45.25
2017-05-27T19:55:27.823Z,45.65
2017-05-27T19:57:57.646Z,46.36
2017-05-27T20:00:27.465Z,46.52
2017-05-27T20:02:57.313Z,46.32
2017-05-27T20:05:27.204Z,46.55
2017-05-27T20:07:57.078Z,47.17
2017-05-27T20:10:26.891Z,47.34
2017-05-27T20:12:56.717Z,47.56
2017-05-27T20:15:26.572Z,47.81
2017-05-27T20:17:56.387Z,48.67
2017-05-27T20:20:26.253Z,49.22
2017-05-27T20:22:56.069Z,49.46
2017-05-27T20:25:25.914Z,50.19
2017-05-27T20:27:55.762Z,50.16
2017-05-27T20:30:25.589Z,50.28
2017-05-27T20:32:55.450Z,50.47
2017-05-27T20:35:25.307Z,50.53
2017-05-27T20:37:55.894Z,50.67
2017-05-27T20:40:25.710Z,50.63
2017-05-27T20:42:55.531Z,51.16
2017-05-27T20:45:25.370Z,51.06
2017-05-27T20:47:55.923Z,50.96
2017-05-27T20:50:25.811Z,51.10
2017-05-27T20:52:55.632Z,51.50
2017-05-27T20:55:25.493Z,52.08
2017-05-27T20:57:55.310Z,52.05
2017-05-27T21:00:25.145Z,51.74
2017-05-27T21:02:54.991Z,51.98
2017-05-27T21:05:24.800Z,52.42
2017-05-27T21:07:54.762Z,52.18
2017-05-27T21:10:24.573Z,51.85
2017-05-27T21:12:54.387Z,51.71
2017-05-27T21:15:24.232Z,52.16
2017-05-27T21:17:54.042Z,52.54
2017-05-27T21:20:23.976Z,53.06
2017-05-27T21:22:53.790Z,53.11
2017-05-27T21:25:23.601Z,53.35
2017-05-27T21:27:53.928Z,53.23
2017-05-27T21:30:23.743Z,53.25
2017-05-27T21:32:53.615Z,53.84
2017-05-27T21:35:23.434Z,53.88
2017-05-27T21:37:53.302Z,53.89
2017-05-27T21:40:23.132Z,53.97
2017-05-27T21:42:52.970Z,53.63
2017-05-27T21:45:22.810Z,53.89
2017-05-27T21:47:52.716Z,54.20
2017-05-27T21:50:22.609Z,54.29
2017-05-27T21:52:52.436Z,54.61
2017-05-27T21:55:22.260Z,54.49
2017-05-27T21:57:52.116Z,54.62
2017-05-27T22:00:21.938Z,55.07
2017-05-27T22:02:51.814Z,54.74
2017-05-27T22:05:21.631Z,55.63
2017-05-27T22:07:51.446Z,55.13
2017-05-27T22:10:21.647Z,55.11
2017-05-27T22:12:51.468Z,55.36
2017-05-27T22:15:21.339Z,55.55
2017-05-27T22:17:51.155Z,55.86
2017-05-27T22:20:20.986Z,55.96
2017-05-27T22:22:50.834Z,56.09
2017-05-27T22:25:20.642Z,55.99
2017-05-27T22:27:50.517Z,56.17
2017-05-27T22:30:20.335Z,55.86
2017-05-27T22:32:50.159Z,56.25
2017-05-27T22:35:19.999Z,56.15
2017-05-27T22:37:49.830Z,56.00
2017-05-27T22:40:19.695Z,56.44
2017-05-27T22:42:49.538Z,55.93
2017-05-27T22:45:19.358Z,56.08
2017-05-27T22:47:49.196Z,56.21
2017-05-27T22:50:19.005Z,56.18
2017-05-27T22:52:48.878Z,56.08
2017-05-27T22:55:18.691Z,56.19
2017-05-27T22:57:48.515Z,56.30
2017-05-27T23:00:18.351Z,56.25
2017-05-27T23:02:48.171Z,56.01
2017-05-27T23:05:18.037Z,55.86
2017-05-27T23:07:47.853Z,55.76
2017-05-27T23:10:17.687Z,55.61
2017-05-27T23:12:47.558Z,55.76
2017-05-27T23:15:17.367Z,55.85
2017-05-27T23:17:47.260Z,55.89
2017-05-27T23:20:17.074Z,56.06
2017-05-27T23:22:46.932Z,56.18
2017-05-27T23:25:16.777Z,56.04
2017-05-27T23:27:46.590Z,56.43
2017-05-27T23:30:16.451Z,56.45
2017-05-27T23:32:46.276Z,56.50
2017-05-27T23:35:16.117Z,57.20
2017-05-27T23:37:45.964Z,57.04
2017-05-27T23:40:15.783Z,57.61
2017-05-27T23:42:45.663Z,57.65
2017-05-27T23:45:15.478Z,57.79
2017-05-27T23:47:45.317Z,57.67
2017-05-27T23:50:15.161Z,57.75
2017-05-27T23:52:44.975Z,57.69
2017-05-27T23:55:14.890Z,58.15
2017-05-27T23:57:44.744Z,58.28
